Forside
METAR-TAF:

METAR-TAF

Lufthavne :

Lusaka, Zambia

Breddekreds: 15-19-51S, længdekreds: 028-27-09E, højde: 1152 m

Aktuelle vejr

Denne rapport blev lavet for 1 time og 7 minutter siden, kl. 12:00 UTC
Vind 6 kt fra øst
Temperatur 25°C
Fugtighed 36%
Tryk 1023 hPa
Sigt 10 km eller mere
Spredte skyer i en højde af 3000 ft

METAR: FLKK 221200Z 08006KT 9999 SCT030 25/09 Q1023

Tid: 15:07 (13:07 UTC)


TAF: fraværende

Vejrobservationer og prognoser fra mere end 4000 lufthavne (METAR og TAF).

De gule og røde prikker repræsenterer de meteorologiske stationer.

Flyt musen over at se navnet på stationen.

Så klik over at se vejr observationer og prognoser.

At skifte det kort: Klik på de grønne knapper med et sort kors for at zoome ind; på den grønne knap med en bindestreg for at zoome ud; eller på de grønne pile for tilstødende kort.


METAR-TAF: